Terminal Aerodrome Forecast
Issued by NWS

Home | Current Version | Previous Version | Text Only | Print | Product List | Glossary On
Versions: 1 2 3 4 5 6 7 8 9 10 11 12 13 14 15 16
089
FTUS43 KMKX 221720
TAFUES
TAF
KUES 221720Z 2218/2318 09006KT P6SM SKC
     FM230400 15004KT P6SM SKC
     FM231400 20008KT P6SM SCT250=

USA.gov is the U.S. government's official web portal to all federal, state and local government web resources and services.